createdAt,value
2023-04-27T00:01:28.082Z,0.33
2023-04-27T00:05:45.652Z,0.30
2023-04-27T00:10:03.259Z,0.30
2023-04-27T00:14:21.362Z,0.26
2023-04-27T00:18:39.226Z,0.28
2023-04-27T00:22:57.054Z,0.25
2023-04-27T00:27:14.690Z,0.15
2023-04-27T00:31:32.497Z,0.15
2023-04-27T00:35:50.086Z,0.09
2023-04-27T00:40:09.035Z,0.02
2023-04-27T00:44:27.923Z,-0.02
2023-04-27T00:48:46.230Z,-0.09
2023-04-27T00:53:03.691Z,-0.26
2023-04-27T00:57:23.515Z,-0.28
2023-04-27T01:01:41.355Z,-0.33
2023-04-27T01:06:02.057Z,-0.37
2023-04-27T01:10:19.666Z,-0.47
2023-04-27T01:14:37.705Z,-0.62
2023-04-27T01:18:56.039Z,-0.68
2023-04-27T01:23:17.099Z,-0.60
2023-04-27T01:27:35.479Z,-0.67
2023-04-27T01:31:53.076Z,-0.95
2023-04-27T01:36:11.065Z,-1.20
2023-04-27T01:40:28.182Z,-1.22
2023-04-27T01:44:46.221Z,-1.17
2023-04-27T01:49:04.076Z,-1.19
2023-04-27T01:53:22.107Z,-1.19
2023-04-27T01:57:39.841Z,-1.19
2023-04-27T02:01:57.724Z,-1.11
2023-04-27T02:06:15.372Z,-1.13
2023-04-27T02:10:33.153Z,-1.19
2023-04-27T02:14:50.656Z,-1.08
2023-04-27T02:19:08.351Z,-0.91
2023-04-27T02:23:25.951Z,-0.65
2023-04-27T02:27:43.974Z,-0.53
2023-04-27T02:32:02.134Z,-0.44
2023-04-27T02:36:19.857Z,-0.44
2023-04-27T02:40:37.592Z,-0.50
2023-04-27T02:44:55.352Z,-0.44
2023-04-27T02:49:12.965Z,-0.51
2023-04-27T02:53:30.819Z,-0.60
2023-04-27T02:57:48.502Z,-0.79
2023-04-27T03:02:07.203Z,-1.02
2023-04-27T03:06:24.759Z,-1.15
2023-04-27T03:10:42.532Z,-1.19
2023-04-27T03:15:00.618Z,-1.13
2023-04-27T03:19:18.258Z,-1.05
2023-04-27T03:23:36.062Z,-1.00
2023-04-27T03:27:53.755Z,-1.06
2023-04-27T03:32:11.410Z,-1.12
2023-04-27T03:36:29.306Z,-1.25
2023-04-27T03:40:46.814Z,-1.42
2023-04-27T03:45:06.031Z,-1.46
2023-04-27T03:49:23.691Z,-1.44
2023-04-27T03:53:41.376Z,-1.37
2023-04-27T03:57:59.189Z,-1.46
2023-04-27T04:02:17.479Z,-1.48
2023-04-27T04:06:35.280Z,-1.43
2023-04-27T04:10:53.006Z,-1.27
2023-04-27T04:15:11.002Z,-1.03
2023-04-27T04:19:28.518Z,-0.74
2023-04-27T04:23:46.800Z,-0.53
2023-04-27T04:28:04.398Z,-0.37
2023-04-27T04:32:23.277Z,-0.32
2023-04-27T04:36:40.984Z,-0.18
2023-04-27T04:40:59.406Z,0.14
2023-04-27T04:45:17.795Z,0.43
2023-04-27T04:49:35.299Z,0.85
2023-04-27T04:53:52.560Z,1.29
2023-04-27T04:58:10.230Z,1.68
2023-04-27T05:02:27.951Z,1.90
2023-04-27T05:06:45.753Z,1.87
2023-04-27T05:11:03.360Z,1.95
2023-04-27T05:15:21.361Z,2.12
2023-04-27T05:19:38.937Z,2.40
2023-04-27T05:23:56.654Z,2.57
2023-04-27T05:28:14.319Z,2.80
2023-04-27T05:32:34.074Z,3.05
2023-04-27T05:36:51.662Z,3.19
2023-04-27T05:41:09.332Z,3.51
2023-04-27T05:45:27.096Z,3.71
2023-04-27T05:49:44.988Z,3.97
2023-04-27T05:54:02.506Z,4.13
2023-04-27T05:58:20.267Z,4.45
2023-04-27T06:02:38.430Z,4.58
2023-04-27T06:06:56.602Z,4.67
2023-04-27T06:11:14.335Z,4.95
2023-04-27T06:15:31.902Z,5.24
2023-04-27T06:19:49.583Z,5.44
2023-04-27T06:24:07.467Z,6.05
2023-04-27T06:28:25.176Z,6.94
2023-04-27T06:32:42.797Z,7.08
2023-04-27T06:37:00.425Z,6.89
2023-04-27T06:41:18.350Z,7.24
2023-04-27T06:45:36.362Z,7.68
2023-04-27T06:49:54.111Z,7.71
2023-04-27T06:54:12.346Z,7.72
2023-04-27T06:58:29.854Z,8.36
2023-04-27T07:02:47.551Z,8.46
2023-04-27T07:07:06.504Z,8.67
2023-04-27T07:11:24.563Z,9.27
2023-04-27T07:15:42.257Z,10.13
2023-04-27T07:20:01.690Z,9.50
2023-04-27T07:24:19.467Z,8.72
2023-04-27T07:28:37.118Z,8.53
2023-04-27T07:32:55.138Z,8.89
2023-04-27T07:37:12.776Z,9.01
2023-04-27T07:41:31.696Z,9.29
2023-04-27T07:45:49.945Z,10.01
2023-04-27T07:50:11.217Z,9.81
2023-04-27T07:54:29.444Z,9.57
2023-04-27T07:58:47.175Z,9.89
2023-04-27T08:03:05.416Z,10.34
2023-04-27T08:07:23.330Z,11.33
2023-04-27T08:11:41.177Z,10.15
2023-04-27T08:15:59.456Z,10.01
2023-04-27T08:20:17.299Z,9.80
2023-04-27T08:24:34.825Z,9.60
2023-04-27T08:28:52.454Z,9.34
2023-04-27T08:33:10.261Z,10.10
2023-04-27T08:37:28.028Z,11.42
2023-04-27T08:41:46.694Z,10.09
2023-04-27T08:46:04.591Z,9.91
2023-04-27T08:50:24.357Z,9.29
2023-04-27T08:54:42.287Z,9.91
2023-04-27T08:59:02.055Z,10.37
2023-04-27T09:03:26.318Z,10.75
2023-04-27T09:07:59.508Z,11.03
2023-04-27T09:12:22.233Z,10.85
2023-04-27T09:16:39.877Z,10.38
2023-04-27T09:20:57.616Z,10.96
2023-04-27T09:25:30.032Z,10.98
2023-04-27T09:29:47.941Z,11.15
2023-04-27T09:34:05.714Z,11.50
2023-04-27T09:38:24.588Z,13.81
2023-04-27T09:42:42.779Z,13.38
2023-04-27T09:47:01.368Z,14.60
2023-04-27T09:51:19.054Z,15.50
2023-04-27T09:55:42.621Z,16.31
2023-04-27T10:00:28.649Z,14.25
2023-04-27T10:05:40.748Z,13.22
2023-04-27T10:10:03.369Z,13.07
2023-04-27T10:14:24.243Z,13.25
2023-04-27T10:18:53.933Z,16.12
2023-04-27T10:23:12.060Z,16.63
2023-04-27T10:27:39.018Z,13.59
2023-04-27T10:31:56.819Z,13.66
2023-04-27T10:36:16.079Z,14.25
2023-04-27T10:40:35.578Z,14.19
2023-04-27T10:44:57.781Z,13.18
2023-04-27T10:49:17.061Z,11.75
2023-04-27T10:53:36.324Z,11.16
2023-04-27T10:57:56.234Z,11.23
2023-04-27T11:02:14.223Z,11.78
2023-04-27T11:06:33.745Z,11.99
2023-04-27T11:10:52.319Z,12.68
2023-04-27T11:15:11.078Z,13.97
2023-04-27T11:19:31.221Z,16.08
2023-04-27T11:23:49.058Z,19.25
2023-04-27T11:28:18.716Z,18.93
2023-04-27T11:32:36.802Z,14.05
2023-04-27T11:41:33.254Z,12.57
2023-04-27T11:45:50.953Z,14.66
2023-04-27T11:50:09.522Z,18.36
2023-04-27T11:54:30.321Z,20.69
2023-04-27T11:58:47.858Z,18.48
2023-04-27T12:03:05.704Z,14.35
2023-04-27T12:07:23.262Z,12.60
2023-04-27T12:11:41.449Z,11.20
2023-04-27T12:16:00.413Z,11.91
2023-04-27T12:20:18.887Z,14.36
2023-04-27T12:24:37.345Z,23.30
2023-04-27T12:28:55.331Z,27.08
2023-04-27T12:33:12.874Z,20.29
2023-04-27T12:37:30.582Z,15.63
2023-04-27T12:41:49.898Z,16.03
2023-04-27T12:46:07.755Z,18.69
2023-04-27T12:50:25.501Z,21.32
2023-04-27T12:54:43.246Z,17.43
2023-04-27T12:59:01.034Z,16.43
2023-04-27T13:03:18.729Z,15.56
2023-04-27T13:07:36.518Z,18.75
2023-04-27T13:11:54.588Z,18.02
2023-04-27T13:16:13.106Z,14.53
2023-04-27T13:20:30.906Z,13.42
2023-04-27T13:24:48.404Z,13.64
2023-04-27T13:29:06.120Z,14.24
2023-04-27T13:33:24.027Z,14.63
2023-04-27T13:37:42.605Z,13.18
2023-04-27T13:42:00.290Z,12.54
2023-04-27T13:46:17.891Z,13.22
2023-04-27T13:50:36.207Z,12.87
2023-04-27T13:54:54.000Z,12.82
2023-04-27T13:59:14.026Z,12.05
2023-04-27T14:03:32.050Z,11.70
2023-04-27T14:07:49.705Z,11.42
2023-04-27T14:12:08.939Z,10.63
2023-04-27T14:16:26.537Z,10.50
2023-04-27T14:21:02.900Z,11.56
2023-04-27T14:25:20.449Z,15.08
2023-04-27T14:29:38.105Z,19.23
2023-04-27T14:33:57.069Z,18.20
2023-04-27T14:38:14.886Z,17.90
2023-04-27T14:42:32.550Z,15.90
2023-04-27T14:46:50.369Z,14.80
2023-04-27T14:51:08.448Z,13.85
2023-04-27T14:55:26.142Z,13.01
2023-04-27T14:59:45.868Z,13.16
2023-04-27T15:04:03.146Z,13.22
2023-04-27T15:08:21.384Z,12.47
2023-04-27T15:12:42.594Z,12.12
2023-04-27T15:17:00.486Z,11.42
2023-04-27T15:21:18.064Z,11.20
2023-04-27T15:25:36.100Z,11.46
2023-04-27T15:29:54.585Z,11.66
2023-04-27T15:34:12.214Z,11.57
2023-04-27T15:38:29.840Z,11.33
2023-04-27T15:42:47.519Z,10.83
2023-04-27T15:47:05.259Z,11.95
2023-04-27T15:51:23.775Z,16.10
2023-04-27T15:55:41.394Z,15.66
2023-04-27T15:59:59.534Z,15.26
2023-04-27T16:04:17.113Z,18.73
2023-04-27T16:08:35.023Z,22.93
2023-04-27T16:12:52.555Z,16.71
2023-04-27T16:17:10.413Z,17.79
2023-04-27T16:21:28.341Z,17.24
2023-04-27T16:25:46.268Z,17.29
2023-04-27T16:30:05.282Z,13.85
2023-04-27T16:34:23.323Z,12.56
2023-04-27T16:38:41.184Z,12.54
2023-04-27T16:42:59.997Z,11.49
2023-04-27T16:47:17.582Z,10.98
2023-04-27T16:51:39.003Z,10.74
2023-04-27T16:56:01.099Z,10.53
2023-04-27T17:00:19.220Z,10.06
2023-04-27T17:04:40.318Z,9.42
2023-04-27T17:09:04.279Z,8.85
2023-04-27T17:13:24.990Z,8.51
2023-04-27T17:17:43.421Z,8.23
2023-04-27T17:22:01.125Z,8.12
2023-04-27T17:26:22.544Z,8.12
2023-04-27T17:30:40.494Z,8.01
2023-04-27T17:35:02.422Z,7.84
2023-04-27T17:39:22.815Z,7.64
2023-04-27T17:43:45.320Z,7.33
2023-04-27T17:48:06.919Z,6.94
2023-04-27T17:52:24.967Z,6.51
2023-04-27T17:56:45.624Z,5.91
2023-04-27T18:01:04.046Z,5.27
2023-04-27T18:05:22.971Z,4.70
2023-04-27T18:09:42.966Z,4.18
2023-04-27T18:14:01.230Z,3.77
2023-04-27T18:18:23.876Z,3.35
2023-04-27T18:22:42.974Z,2.94
2023-04-27T18:27:00.729Z,2.64
2023-04-27T18:31:20.595Z,2.30
2023-04-27T18:35:38.583Z,1.99
2023-04-27T18:39:58.641Z,1.71
2023-04-27T18:44:17.087Z,1.50
2023-04-27T18:48:35.061Z,1.29
2023-04-27T18:52:55.528Z,1.09
2023-04-27T18:57:13.812Z,0.92
2023-04-27T19:01:32.678Z,0.77
2023-04-27T19:05:53.339Z,0.61
2023-04-27T19:10:12.181Z,0.54
2023-04-27T19:14:31.216Z,0.37
2023-04-27T19:18:49.520Z,0.33
2023-04-27T19:23:09.706Z,0.22
2023-04-27T19:27:28.633Z,0.08
2023-04-27T19:31:48.486Z,-0.03
2023-04-27T19:36:09.768Z,-0.09
2023-04-27T19:40:31.976Z,-0.08
2023-04-27T19:44:52.003Z,-0.23
2023-04-27T19:49:10.437Z,-0.30
2023-04-27T19:53:30.932Z,-0.40
2023-04-27T19:57:49.411Z,-0.50
2023-04-27T20:02:09.579Z,-0.54
2023-04-27T20:06:27.560Z,-0.58
2023-04-27T20:10:45.206Z,-0.61
2023-04-27T20:15:07.434Z,-0.67
2023-04-27T20:19:25.546Z,-0.69
2023-04-27T20:23:46.526Z,-0.67
2023-04-27T20:28:04.744Z,-0.69
2023-04-27T20:32:22.516Z,-0.69
2023-04-27T20:36:44.512Z,-0.61
2023-04-27T20:41:07.629Z,-0.56
2023-04-27T20:45:31.333Z,-0.39
2023-04-27T20:49:49.347Z,-0.19
2023-04-27T20:54:07.308Z,-0.05
2023-04-27T20:58:27.524Z,-0.05
2023-04-27T21:02:45.318Z,-0.05
2023-04-27T21:07:03.510Z,-0.05
2023-04-27T21:11:26.407Z,-0.05
2023-04-27T21:15:44.050Z,0.08
2023-04-27T21:20:03.928Z,0.24
2023-04-27T21:24:24.962Z,0.49
2023-04-27T21:28:44.568Z,0.63
2023-04-27T21:33:03.284Z,0.66
2023-04-27T21:37:21.443Z,0.74
2023-04-27T21:41:39.985Z,0.83
2023-04-27T21:45:57.974Z,0.96
2023-04-27T21:50:16.778Z,0.99
2023-04-27T21:54:34.824Z,0.99
2023-04-27T21:58:52.359Z,1.11
2023-04-27T22:03:10.513Z,1.26
2023-04-27T22:07:28.533Z,1.29
2023-04-27T22:11:46.954Z,1.36
2023-04-27T22:16:04.796Z,1.47
2023-04-27T22:20:23.831Z,1.67
2023-04-27T22:24:41.425Z,1.73
2023-04-27T22:28:59.091Z,1.77
2023-04-27T22:33:16.916Z,1.87
2023-04-27T22:37:35.151Z,1.98
2023-04-27T22:41:52.686Z,2.10
2023-04-27T22:46:10.317Z,2.16
2023-04-27T22:50:29.464Z,2.18
2023-04-27T22:54:47.650Z,2.23
2023-04-27T22:59:05.268Z,2.30
2023-04-27T23:03:23.063Z,2.35
2023-04-27T23:07:43.746Z,2.36
2023-04-27T23:12:01.438Z,2.46
2023-04-27T23:16:19.027Z,2.50
2023-04-27T23:20:36.833Z,2.45
2023-04-27T23:24:55.066Z,2.46
2023-04-27T23:29:12.504Z,2.47
2023-04-27T23:33:30.462Z,2.37
2023-04-27T23:37:47.967Z,2.49
2023-04-27T23:42:05.706Z,2.56
2023-04-27T23:46:23.487Z,2.61
2023-04-27T23:50:41.044Z,2.66
2023-04-27T23:55:02.147Z,2.64
2023-04-27T23:59:20.480Z,2.68
